sensor_id;sensor_type;location;lat;lon;timestamp;temperature;humidity
47414;DHT22;33163;0.000;0.000;2023-04-21T00:01:23;19.00;51.50
47414;DHT22;33163;0.000;0.000;2023-04-21T00:03:50;19.00;51.50
47414;DHT22;33163;0.000;0.000;2023-04-21T00:06:17;19.00;51.50
47414;DHT22;33163;0.000;0.000;2023-04-21T00:08:47;19.00;51.50
47414;DHT22;33163;0.000;0.000;2023-04-21T00:11:15;19.00;51.50
47414;DHT22;33163;0.000;0.000;2023-04-21T00:13:41;18.90;51.60
47414;DHT22;33163;0.000;0.000;2023-04-21T00:16:08;18.90;51.70
47414;DHT22;33163;0.000;0.000;2023-04-21T00:18:35;18.90;51.60
47414;DHT22;33163;0.000;0.000;2023-04-21T00:21:02;18.90;51.70
47414;DHT22;33163;0.000;0.000;2023-04-21T00:23:29;18.90;51.70
47414;DHT22;33163;0.000;0.000;2023-04-21T00:25:56;18.90;51.80
47414;DHT22;33163;0.000;0.000;2023-04-21T00:28:25;18.90;51.80
47414;DHT22;33163;0.000;0.000;2023-04-21T00:30:51;18.90;51.80
47414;DHT22;33163;0.000;0.000;2023-04-21T00:33:19;18.90;51.80
47414;DHT22;33163;0.000;0.000;2023-04-21T00:35:46;18.90;51.90
47414;DHT22;33163;0.000;0.000;2023-04-21T00:38:13;18.90;51.90
47414;DHT22;33163;0.000;0.000;2023-04-21T00:40:40;18.90;51.90
47414;DHT22;33163;0.000;0.000;2023-04-21T00:43:06;18.90;51.90
47414;DHT22;33163;0.000;0.000;2023-04-21T00:45:35;18.90;52.00
47414;DHT22;33163;0.000;0.000;2023-04-21T00:48:01;18.90;52.00
47414;DHT22;33163;0.000;0.000;2023-04-21T00:50:28;18.90;52.00
47414;DHT22;33163;0.000;0.000;2023-04-21T00:52:55;18.90;52.00
47414;DHT22;33163;0.000;0.000;2023-04-21T00:55:23;18.90;52.00
47414;DHT22;33163;0.000;0.000;2023-04-21T00:57:51;18.90;52.10
47414;DHT22;33163;0.000;0.000;2023-04-21T01:00:18;18.90;52.10
47414;DHT22;33163;0.000;0.000;2023-04-21T01:02:46;18.90;52.10
47414;DHT22;33163;0.000;0.000;2023-04-21T01:05:13;18.90;52.20
47414;DHT22;33163;0.000;0.000;2023-04-21T01:07:43;18.80;52.20
47414;DHT22;33163;0.000;0.000;2023-04-21T01:10:10;18.90;52.30
47414;DHT22;33163;0.000;0.000;2023-04-21T01:12:41;18.80;52.30
47414;DHT22;33163;0.000;0.000;2023-04-21T01:15:10;18.90;52.30
47414;DHT22;33163;0.000;0.000;2023-04-21T01:17:37;18.90;52.30
47414;DHT22;33163;0.000;0.000;2023-04-21T01:20:08;18.90;52.30
47414;DHT22;33163;0.000;0.000;2023-04-21T01:22:38;18.90;52.40
47414;DHT22;33163;0.000;0.000;2023-04-21T01:25:06;18.90;52.40
47414;DHT22;33163;0.000;0.000;2023-04-21T01:27:33;18.80;52.40
47414;DHT22;33163;0.000;0.000;2023-04-21T01:30:00;18.90;52.50
47414;DHT22;33163;0.000;0.000;2023-04-21T01:32:28;18.80;52.50
47414;DHT22;33163;0.000;0.000;2023-04-21T01:34:56;18.80;52.50
47414;DHT22;33163;0.000;0.000;2023-04-21T01:37:25;18.80;52.50
47414;DHT22;33163;0.000;0.000;2023-04-21T01:39:56;18.80;52.50
47414;DHT22;33163;0.000;0.000;2023-04-21T01:42:25;18.80;52.60
47414;DHT22;33163;0.000;0.000;2023-04-21T01:44:53;18.80;52.60
47414;DHT22;33163;0.000;0.000;2023-04-21T01:47:20;18.80;52.60
47414;DHT22;33163;0.000;0.000;2023-04-21T01:49:47;18.80;52.60
47414;DHT22;33163;0.000;0.000;2023-04-21T01:52:14;18.80;52.70
47414;DHT22;33163;0.000;0.000;2023-04-21T01:54:40;18.80;52.70
47414;DHT22;33163;0.000;0.000;2023-04-21T01:57:09;18.80;52.70
47414;DHT22;33163;0.000;0.000;2023-04-21T01:59:35;18.80;52.80
47414;DHT22;33163;0.000;0.000;2023-04-21T02:02:02;18.80;52.80
47414;DHT22;33163;0.000;0.000;2023-04-21T02:04:29;18.80;52.90
47414;DHT22;33163;0.000;0.000;2023-04-21T02:06:56;18.80;52.80
47414;DHT22;33163;0.000;0.000;2023-04-21T02:09:23;18.80;52.90
47414;DHT22;33163;0.000;0.000;2023-04-21T02:11:50;18.80;52.80
47414;DHT22;33163;0.000;0.000;2023-04-21T02:14:18;18.80;52.90
47414;DHT22;33163;0.000;0.000;2023-04-21T02:16:45;18.80;52.90
47414;DHT22;33163;0.000;0.000;2023-04-21T02:19:11;18.80;52.90
47414;DHT22;33163;0.000;0.000;2023-04-21T02:21:38;18.80;53.00
47414;DHT22;33163;0.000;0.000;2023-04-21T02:24:05;18.80;53.00
47414;DHT22;33163;0.000;0.000;2023-04-21T02:26:32;18.80;53.00
47414;DHT22;33163;0.000;0.000;2023-04-21T02:28:59;18.70;53.00
47414;DHT22;33163;0.000;0.000;2023-04-21T02:31:27;18.70;53.00
47414;DHT22;33163;0.000;0.000;2023-04-21T02:33:53;18.70;53.00
47414;DHT22;33163;0.000;0.000;2023-04-21T02:36:20;18.70;53.10
47414;DHT22;33163;0.000;0.000;2023-04-21T02:38:47;18.70;53.10
47414;DHT22;33163;0.000;0.000;2023-04-21T02:41:14;18.70;53.10
47414;DHT22;33163;0.000;0.000;2023-04-21T02:43:41;18.70;53.10
47414;DHT22;33163;0.000;0.000;2023-04-21T02:46:08;18.70;53.10
47414;DHT22;33163;0.000;0.000;2023-04-21T02:48:36;18.70;53.10
47414;DHT22;33163;0.000;0.000;2023-04-21T02:51:03;18.70;53.10
47414;DHT22;33163;0.000;0.000;2023-04-21T02:53:30;18.70;53.10
47414;DHT22;33163;0.000;0.000;2023-04-21T02:55:57;18.70;53.20
47414;DHT22;33163;0.000;0.000;2023-04-21T02:58:26;18.70;53.20
47414;DHT22;33163;0.000;0.000;2023-04-21T03:00:53;18.70;53.20
47414;DHT22;33163;0.000;0.000;2023-04-21T03:03:20;18.70;53.30
47414;DHT22;33163;0.000;0.000;2023-04-21T03:05:48;18.70;53.30
47414;DHT22;33163;0.000;0.000;2023-04-21T03:08:15;18.70;53.30
47414;DHT22;33163;0.000;0.000;2023-04-21T03:10:42;18.70;53.30
47414;DHT22;33163;0.000;0.000;2023-04-21T03:13:08;18.70;53.30
47414;DHT22;33163;0.000;0.000;2023-04-21T03:15:35;18.70;53.30
47414;DHT22;33163;0.000;0.000;2023-04-21T03:18:02;18.70;53.30
47414;DHT22;33163;0.000;0.000;2023-04-21T03:20:29;18.70;53.40
47414;DHT22;33163;0.000;0.000;2023-04-21T03:22:57;18.70;53.40
47414;DHT22;33163;0.000;0.000;2023-04-21T03:25:24;18.70;53.40
47414;DHT22;33163;0.000;0.000;2023-04-21T03:27:52;18.60;53.40
47414;DHT22;33163;0.000;0.000;2023-04-21T03:30:19;18.60;53.30
47414;DHT22;33163;0.000;0.000;2023-04-21T03:32:45;18.60;53.40
47414;DHT22;33163;0.000;0.000;2023-04-21T03:35:12;18.60;53.40
47414;DHT22;33163;0.000;0.000;2023-04-21T03:37:39;18.60;53.40
47414;DHT22;33163;0.000;0.000;2023-04-21T03:40:08;18.60;53.40
47414;DHT22;33163;0.000;0.000;2023-04-21T03:42:35;18.60;53.40
47414;DHT22;33163;0.000;0.000;2023-04-21T03:45:02;18.60;53.40
47414;DHT22;33163;0.000;0.000;2023-04-21T03:47:29;18.60;53.40
47414;DHT22;33163;0.000;0.000;2023-04-21T03:49:56;18.60;53.40
47414;DHT22;33163;0.000;0.000;2023-04-21T03:52:23;18.60;53.50
47414;DHT22;33163;0.000;0.000;2023-04-21T03:54:50;18.60;53.60
47414;DHT22;33163;0.000;0.000;2023-04-21T03:57:18;18.60;53.60
47414;DHT22;33163;0.000;0.000;2023-04-21T03:59:45;18.60;53.60
47414;DHT22;33163;0.000;0.000;2023-04-21T04:02:11;18.50;53.50
47414;DHT22;33163;0.000;0.000;2023-04-21T04:04:38;18.60;53.60
47414;DHT22;33163;0.000;0.000;2023-04-21T04:07:05;18.60;53.60
47414;DHT22;33163;0.000;0.000;2023-04-21T04:09:32;18.60;53.60
47414;DHT22;33163;0.000;0.000;2023-04-21T04:11:59;18.50;53.50
47414;DHT22;33163;0.000;0.000;2023-04-21T04:14:29;18.60;53.70
47414;DHT22;33163;0.000;0.000;2023-04-21T04:16:56;18.50;53.60
47414;DHT22;33163;0.000;0.000;2023-04-21T04:19:29;18.60;53.70
47414;DHT22;33163;0.000;0.000;2023-04-21T04:21:57;18.50;53.70
47414;DHT22;33163;0.000;0.000;2023-04-21T04:24:24;18.60;53.80
47414;DHT22;33163;0.000;0.000;2023-04-21T04:26:52;18.50;53.70
47414;DHT22;33163;0.000;0.000;2023-04-21T04:29:19;18.60;53.80
47414;DHT22;33163;0.000;0.000;2023-04-21T04:31:48;18.60;54.10
47414;DHT22;33163;0.000;0.000;2023-04-21T04:34:15;18.50;53.80
47414;DHT22;33163;0.000;0.000;2023-04-21T04:36:42;18.60;53.80
47414;DHT22;33163;0.000;0.000;2023-04-21T04:39:09;18.60;53.90
47414;DHT22;33163;0.000;0.000;2023-04-21T04:41:37;18.50;53.80
47414;DHT22;33163;0.000;0.000;2023-04-21T04:44:04;18.50;53.80
47414;DHT22;33163;0.000;0.000;2023-04-21T04:46:31;18.50;53.80
47414;DHT22;33163;0.000;0.000;2023-04-21T04:48:59;18.50;53.80
47414;DHT22;33163;0.000;0.000;2023-04-21T04:51:26;18.60;54.00
47414;DHT22;33163;0.000;0.000;2023-04-21T04:53:53;18.50;53.90
47414;DHT22;33163;0.000;0.000;2023-04-21T04:56:19;18.50;53.90
47414;DHT22;33163;0.000;0.000;2023-04-21T04:58:46;18.50;53.90
47414;DHT22;33163;0.000;0.000;2023-04-21T05:01:13;18.50;54.00
47414;DHT22;33163;0.000;0.000;2023-04-21T05:03:41;18.50;54.00
47414;DHT22;33163;0.000;0.000;2023-04-21T05:06:09;18.50;54.70
47414;DHT22;33163;0.000;0.000;2023-04-21T05:08:36;18.50;54.00
47414;DHT22;33163;0.000;0.000;2023-04-21T05:11:04;18.50;54.10
47414;DHT22;33163;0.000;0.000;2023-04-21T05:13:31;18.50;54.10
47414;DHT22;33163;0.000;0.000;2023-04-21T05:15:58;18.50;54.10
47414;DHT22;33163;0.000;0.000;2023-04-21T05:18:26;18.50;54.10
47414;DHT22;33163;0.000;0.000;2023-04-21T05:20:53;18.50;54.20
47414;DHT22;33163;0.000;0.000;2023-04-21T05:23:22;18.50;54.20
47414;DHT22;33163;0.000;0.000;2023-04-21T05:25:48;18.50;54.20
47414;DHT22;33163;0.000;0.000;2023-04-21T05:28:15;18.50;54.20
47414;DHT22;33163;0.000;0.000;2023-04-21T05:30:42;18.50;54.30
47414;DHT22;33163;0.000;0.000;2023-04-21T05:33:08;18.50;54.30
47414;DHT22;33163;0.000;0.000;2023-04-21T05:35:35;18.50;54.40
47414;DHT22;33163;0.000;0.000;2023-04-21T05:38:02;18.40;54.40
47414;DHT22;33163;0.000;0.000;2023-04-21T05:40:30;18.50;54.50
47414;DHT22;33163;0.000;0.000;2023-04-21T05:43:12;18.50;54.60
47414;DHT22;33163;0.000;0.000;2023-04-21T05:45:39;18.40;54.70
47414;DHT22;33163;0.000;0.000;2023-04-21T05:48:06;18.40;54.80
47414;DHT22;33163;0.000;0.000;2023-04-21T05:50:33;18.40;54.90
47414;DHT22;33163;0.000;0.000;2023-04-21T05:53:01;18.40;55.10
47414;DHT22;33163;0.000;0.000;2023-04-21T05:55:27;18.40;55.10
47414;DHT22;33163;0.000;0.000;2023-04-21T05:57:55;18.40;55.30
47414;DHT22;33163;0.000;0.000;2023-04-21T06:00:22;18.40;55.50
47414;DHT22;33163;0.000;0.000;2023-04-21T06:02:49;18.40;56.40
47414;DHT22;33163;0.000;0.000;2023-04-21T06:05:16;18.40;55.70
47414;DHT22;33163;0.000;0.000;2023-04-21T06:07:43;18.40;55.70
47414;DHT22;33163;0.000;0.000;2023-04-21T06:10:11;18.40;55.80
47414;DHT22;33163;0.000;0.000;2023-04-21T06:12:38;18.40;56.00
47414;DHT22;33163;0.000;0.000;2023-04-21T06:15:08;18.40;56.20
47414;DHT22;33163;0.000;0.000;2023-04-21T06:17:35;18.40;56.10
47414;DHT22;33163;0.000;0.000;2023-04-21T06:20:01;18.40;56.10
47414;DHT22;33163;0.000;0.000;2023-04-21T06:22:28;18.40;56.10
47414;DHT22;33163;0.000;0.000;2023-04-21T06:24:55;18.40;56.10
47414;DHT22;33163;0.000;0.000;2023-04-21T06:27:22;18.40;56.10
47414;DHT22;33163;0.000;0.000;2023-04-21T06:29:53;18.40;56.00
47414;DHT22;33163;0.000;0.000;2023-04-21T06:32:21;18.40;56.00
47414;DHT22;33163;0.000;0.000;2023-04-21T06:34:48;18.40;56.10
47414;DHT22;33163;0.000;0.000;2023-04-21T06:37:15;18.40;56.30
47414;DHT22;33163;0.000;0.000;2023-04-21T06:39:41;18.40;56.40
47414;DHT22;33163;0.000;0.000;2023-04-21T06:42:08;18.40;56.50
47414;DHT22;33163;0.000;0.000;2023-04-21T06:44:35;18.40;56.40
47414;DHT22;33163;0.000;0.000;2023-04-21T06:47:02;18.40;56.50
47414;DHT22;33163;0.000;0.000;2023-04-21T06:49:30;18.40;56.40
47414;DHT22;33163;0.000;0.000;2023-04-21T06:51:58;18.40;56.40
47414;DHT22;33163;0.000;0.000;2023-04-21T06:54:25;18.40;56.40
47414;DHT22;33163;0.000;0.000;2023-04-21T06:56:52;18.40;56.40
47414;DHT22;33163;0.000;0.000;2023-04-21T06:59:19;18.40;56.30
47414;DHT22;33163;0.000;0.000;2023-04-21T07:01:45;18.40;56.40
47414;DHT22;33163;0.000;0.000;2023-04-21T07:04:13;18.40;56.40
47414;DHT22;33163;0.000;0.000;2023-04-21T07:06:41;18.40;56.30
47414;DHT22;33163;0.000;0.000;2023-04-21T07:09:08;18.40;56.30
47414;DHT22;33163;0.000;0.000;2023-04-21T07:11:35;18.40;56.40
47414;DHT22;33163;0.000;0.000;2023-04-21T07:14:02;18.40;56.40
47414;DHT22;33163;0.000;0.000;2023-04-21T07:16:29;18.40;56.40
47414;DHT22;33163;0.000;0.000;2023-04-21T07:18:56;18.40;56.50
47414;DHT22;33163;0.000;0.000;2023-04-21T07:21:23;18.40;56.50
47414;DHT22;33163;0.000;0.000;2023-04-21T07:23:51;18.40;56.50
47414;DHT22;33163;0.000;0.000;2023-04-21T07:26:18;18.30;56.30
47414;DHT22;33163;0.000;0.000;2023-04-21T07:28:46;18.40;56.40
47414;DHT22;33163;0.000;0.000;2023-04-21T07:31:14;18.40;56.40
47414;DHT22;33163;0.000;0.000;2023-04-21T07:33:41;18.40;56.40
47414;DHT22;33163;0.000;0.000;2023-04-21T07:36:08;18.30;56.40
47414;DHT22;33163;0.000;0.000;2023-04-21T07:38:35;18.40;56.40
47414;DHT22;33163;0.000;0.000;2023-04-21T07:41:04;18.40;56.50
47414;DHT22;33163;0.000;0.000;2023-04-21T07:43:30;18.40;56.50
47414;DHT22;33163;0.000;0.000;2023-04-21T07:45:57;18.40;56.40
47414;DHT22;33163;0.000;0.000;2023-04-21T07:48:24;18.40;56.40
47414;DHT22;33163;0.000;0.000;2023-04-21T07:50:51;18.30;56.40
47414;DHT22;33163;0.000;0.000;2023-04-21T07:53:17;18.40;56.30
47414;DHT22;33163;0.000;0.000;2023-04-21T07:55:44;18.40;56.40
47414;DHT22;33163;0.000;0.000;2023-04-21T07:58:12;18.40;56.40
47414;DHT22;33163;0.000;0.000;2023-04-21T08:00:39;18.40;56.30
47414;DHT22;33163;0.000;0.000;2023-04-21T08:03:06;18.40;56.10
47414;DHT22;33163;0.000;0.000;2023-04-21T08:05:32;18.40;56.10
47414;DHT22;33163;0.000;0.000;2023-04-21T08:07:59;18.50;56.00
47414;DHT22;33163;0.000;0.000;2023-04-21T08:10:26;18.50;56.10
47414;DHT22;33163;0.000;0.000;2023-04-21T08:12:53;18.50;56.10
47414;DHT22;33163;0.000;0.000;2023-04-21T08:15:21;18.60;56.10
47414;DHT22;33163;0.000;0.000;2023-04-21T08:17:48;18.60;56.10
47414;DHT22;33163;0.000;0.000;2023-04-21T08:20:16;18.60;56.20
47414;DHT22;33163;0.000;0.000;2023-04-21T08:22:42;18.60;56.20
47414;DHT22;33163;0.000;0.000;2023-04-21T08:25:09;18.60;56.20
47414;DHT22;33163;0.000;0.000;2023-04-21T08:27:36;18.70;56.20
47414;DHT22;33163;0.000;0.000;2023-04-21T08:30:05;18.70;56.30
47414;DHT22;33163;0.000;0.000;2023-04-21T08:32:33;18.70;56.40
47414;DHT22;33163;0.000;0.000;2023-04-21T08:35:00;18.80;56.40
47414;DHT22;33163;0.000;0.000;2023-04-21T08:37:27;18.90;56.40
47414;DHT22;33163;0.000;0.000;2023-04-21T08:39:53;18.80;56.40
47414;DHT22;33163;0.000;0.000;2023-04-21T08:42:20;18.80;56.40
47414;DHT22;33163;0.000;0.000;2023-04-21T08:44:47;18.90;56.60
47414;DHT22;33163;0.000;0.000;2023-04-21T08:47:14;18.80;56.50
47414;DHT22;33163;0.000;0.000;2023-04-21T08:49:42;18.80;56.50
47414;DHT22;33163;0.000;0.000;2023-04-21T08:52:11;18.90;56.60
47414;DHT22;33163;0.000;0.000;2023-04-21T08:54:37;18.90;56.60
47414;DHT22;33163;0.000;0.000;2023-04-21T08:57:04;19.00;56.60
47414;DHT22;33163;0.000;0.000;2023-04-21T08:59:32;19.00;56.70
47414;DHT22;33163;0.000;0.000;2023-04-21T09:02:09;19.00;56.60
47414;DHT22;33163;0.000;0.000;2023-04-21T09:04:39;19.00;56.60
47414;DHT22;33163;0.000;0.000;2023-04-21T09:07:08;19.10;56.60
47414;DHT22;33163;0.000;0.000;2023-04-21T09:09:52;19.00;55.80
47414;DHT22;33163;0.000;0.000;2023-04-21T09:12:20;19.00;57.00
47414;DHT22;33163;0.000;0.000;2023-04-21T09:14:47;19.00;56.70
47414;DHT22;33163;0.000;0.000;2023-04-21T09:17:15;19.10;56.80
47414;DHT22;33163;0.000;0.000;2023-04-21T09:19:42;19.10;56.80
47414;DHT22;33163;0.000;0.000;2023-04-21T09:22:14;19.10;56.70
47414;DHT22;33163;0.000;0.000;2023-04-21T09:24:44;19.10;56.90
47414;DHT22;33163;0.000;0.000;2023-04-21T09:27:12;19.10;56.80
47414;DHT22;33163;0.000;0.000;2023-04-21T09:29:44;19.10;56.90
47414;DHT22;33163;0.000;0.000;2023-04-21T09:32:15;19.10;56.90
47414;DHT22;33163;0.000;0.000;2023-04-21T09:34:43;19.10;56.90
47414;DHT22;33163;0.000;0.000;2023-04-21T09:37:10;19.10;56.90
47414;DHT22;33163;0.000;0.000;2023-04-21T09:39:39;19.10;56.80
47414;DHT22;33163;0.000;0.000;2023-04-21T09:42:10;19.20;56.90
47414;DHT22;33163;0.000;0.000;2023-04-21T09:44:37;19.20;56.80
47414;DHT22;33163;0.000;0.000;2023-04-21T09:47:04;19.20;56.90
47414;DHT22;33163;0.000;0.000;2023-04-21T09:49:35;19.20;56.90
47414;DHT22;33163;0.000;0.000;2023-04-21T09:52:05;19.20;56.90
47414;DHT22;33163;0.000;0.000;2023-04-21T09:54:36;19.20;56.90
47414;DHT22;33163;0.000;0.000;2023-04-21T09:57:10;19.20;56.90
47414;DHT22;33163;0.000;0.000;2023-04-21T09:59:44;19.20;56.90
47414;DHT22;33163;0.000;0.000;2023-04-21T10:02:11;19.20;56.90
47414;DHT22;33163;0.000;0.000;2023-04-21T10:04:40;19.20;57.00
47414;DHT22;33163;0.000;0.000;2023-04-21T10:07:08;19.20;56.90
47414;DHT22;33163;0.000;0.000;2023-04-21T10:09:39;19.20;56.90
47414;DHT22;33163;0.000;0.000;2023-04-21T10:12:09;19.20;56.90
47414;DHT22;33163;0.000;0.000;2023-04-21T10:14:36;19.20;56.90
47414;DHT22;33163;0.000;0.000;2023-04-21T10:17:05;19.20;56.90
47414;DHT22;33163;0.000;0.000;2023-04-21T10:19:34;19.20;56.90
47414;DHT22;33163;0.000;0.000;2023-04-21T10:22:05;19.30;56.90
47414;DHT22;33163;0.000;0.000;2023-04-21T10:24:36;19.30;57.00
47414;DHT22;33163;0.000;0.000;2023-04-21T10:27:03;19.30;57.00
47414;DHT22;33163;0.000;0.000;2023-04-21T10:29:32;19.40;57.10
47414;DHT22;33163;0.000;0.000;2023-04-21T10:31:59;19.40;57.20
47414;DHT22;33163;0.000;0.000;2023-04-21T10:34:34;19.40;57.10
47414;DHT22;33163;0.000;0.000;2023-04-21T10:37:17;19.50;57.10
47414;DHT22;33163;0.000;0.000;2023-04-21T10:39:52;19.50;57.10
47414;DHT22;33163;0.000;0.000;2023-04-21T10:42:28;19.60;57.20
47414;DHT22;33163;0.000;0.000;2023-04-21T10:45:09;19.60;57.20
47414;DHT22;33163;0.000;0.000;2023-04-21T10:47:40;19.70;57.30
47414;DHT22;33163;0.000;0.000;2023-04-21T10:50:12;19.70;57.20
47414;DHT22;33163;0.000;0.000;2023-04-21T10:52:43;19.80;57.40
47414;DHT22;33163;0.000;0.000;2023-04-21T10:55:11;19.80;57.30
47414;DHT22;33163;0.000;0.000;2023-04-21T10:57:42;19.90;57.40
47414;DHT22;33163;0.000;0.000;2023-04-21T11:00:14;19.90;57.40
47414;DHT22;33163;0.000;0.000;2023-04-21T11:02:41;19.90;57.30
47414;DHT22;33163;0.000;0.000;2023-04-21T11:05:08;20.00;57.40
47414;DHT22;33163;0.000;0.000;2023-04-21T11:07:35;20.10;57.40
47414;DHT22;33163;0.000;0.000;2023-04-21T11:10:06;20.10;57.40
47414;DHT22;33163;0.000;0.000;2023-04-21T11:12:36;20.20;58.20
47414;DHT22;33163;0.000;0.000;2023-04-21T11:15:04;20.30;58.60
47414;DHT22;33163;0.000;0.000;2023-04-21T11:17:34;20.40;59.00
47414;DHT22;33163;0.000;0.000;2023-04-21T11:20:03;20.40;59.00
47414;DHT22;33163;0.000;0.000;2023-04-21T11:22:31;20.50;58.90
47414;DHT22;33163;0.000;0.000;2023-04-21T11:24:58;20.50;58.90
47414;DHT22;33163;0.000;0.000;2023-04-21T11:27:26;20.50;59.00
47414;DHT22;33163;0.000;0.000;2023-04-21T11:29:53;20.50;59.00
47414;DHT22;33163;0.000;0.000;2023-04-21T11:32:20;20.50;59.00
47414;DHT22;33163;0.000;0.000;2023-04-21T11:34:48;20.50;59.00
47414;DHT22;33163;0.000;0.000;2023-04-21T11:37:19;20.60;59.10
47414;DHT22;33163;0.000;0.000;2023-04-21T11:39:46;20.60;59.00
47414;DHT22;33163;0.000;0.000;2023-04-21T11:42:20;20.60;59.00
47414;DHT22;33163;0.000;0.000;2023-04-21T11:44:47;20.60;59.00
47414;DHT22;33163;0.000;0.000;2023-04-21T11:47:15;20.60;59.00
47414;DHT22;33163;0.000;0.000;2023-04-21T11:49:46;20.60;58.90
47414;DHT22;33163;0.000;0.000;2023-04-21T11:52:22;20.60;58.90
47414;DHT22;33163;0.000;0.000;2023-04-21T11:54:54;20.60;58.80
47414;DHT22;33163;0.000;0.000;2023-04-21T11:57:22;20.60;58.90
47414;DHT22;33163;0.000;0.000;2023-04-21T11:59:50;20.60;58.80
47414;DHT22;33163;0.000;0.000;2023-04-21T12:02:21;20.60;58.70
47414;DHT22;33163;0.000;0.000;2023-04-21T12:04:57;20.60;58.70
47414;DHT22;33163;0.000;0.000;2023-04-21T12:07:25;20.60;58.80
47414;DHT22;33163;0.000;0.000;2023-04-21T12:09:52;20.50;58.80
47414;DHT22;33163;0.000;0.000;2023-04-21T12:12:21;20.50;58.70
47414;DHT22;33163;0.000;0.000;2023-04-21T12:14:48;20.50;58.70
47414;DHT22;33163;0.000;0.000;2023-04-21T12:17:15;20.50;58.60
47414;DHT22;33163;0.000;0.000;2023-04-21T12:19:42;20.50;58.50
47414;DHT22;33163;0.000;0.000;2023-04-21T12:22:10;20.50;58.60
47414;DHT22;33163;0.000;0.000;2023-04-21T12:24:39;20.50;58.50
47414;DHT22;33163;0.000;0.000;2023-04-21T12:27:07;20.50;58.50
47414;DHT22;33163;0.000;0.000;2023-04-21T12:29:34;20.60;58.50
47414;DHT22;33163;0.000;0.000;2023-04-21T12:32:02;20.60;58.50
47414;DHT22;33163;0.000;0.000;2023-04-21T12:34:29;20.50;58.30
47414;DHT22;33163;0.000;0.000;2023-04-21T12:36:55;20.50;58.40
47414;DHT22;33163;0.000;0.000;2023-04-21T12:39:22;20.50;58.30
47414;DHT22;33163;0.000;0.000;2023-04-21T12:41:50;20.40;58.40
47414;DHT22;33163;0.000;0.000;2023-04-21T12:44:17;20.40;58.50
47414;DHT22;33163;0.000;0.000;2023-04-21T12:46:44;20.40;58.50
47414;DHT22;33163;0.000;0.000;2023-04-21T12:49:14;20.40;58.60
47414;DHT22;33163;0.000;0.000;2023-04-21T12:51:42;20.40;58.50
47414;DHT22;33163;0.000;0.000;2023-04-21T12:54:09;20.40;58.50
47414;DHT22;33163;0.000;0.000;2023-04-21T12:56:36;20.40;58.50
47414;DHT22;33163;0.000;0.000;2023-04-21T12:59:06;20.40;58.50
47414;DHT22;33163;0.000;0.000;2023-04-21T13:01:34;20.40;58.40
47414;DHT22;33163;0.000;0.000;2023-04-21T13:04:01;20.40;58.40
47414;DHT22;33163;0.000;0.000;2023-04-21T13:06:28;20.40;58.30
47414;DHT22;33163;0.000;0.000;2023-04-21T13:08:55;20.40;58.30
47414;DHT22;33163;0.000;0.000;2023-04-21T13:11:22;20.40;58.20
47414;DHT22;33163;0.000;0.000;2023-04-21T13:13:49;20.40;58.20
47414;DHT22;33163;0.000;0.000;2023-04-21T13:16:17;20.40;58.20
47414;DHT22;33163;0.000;0.000;2023-04-21T13:18:44;20.40;58.20
47414;DHT22;33163;0.000;0.000;2023-04-21T13:21:11;20.50;58.10
47414;DHT22;33163;0.000;0.000;2023-04-21T13:23:38;20.50;58.00
47414;DHT22;33163;0.000;0.000;2023-04-21T13:26:05;20.50;57.90
47414;DHT22;33163;0.000;0.000;2023-04-21T13:28:32;20.40;58.00
47414;DHT22;33163;0.000;0.000;2023-04-21T13:30:59;20.40;58.00
47414;DHT22;33163;0.000;0.000;2023-04-21T13:33:27;20.40;58.00
47414;DHT22;33163;0.000;0.000;2023-04-21T13:35:54;20.40;57.90
47414;DHT22;33163;0.000;0.000;2023-04-21T13:38:21;20.40;57.90
47414;DHT22;33163;0.000;0.000;2023-04-21T13:40:48;20.40;57.90
47414;DHT22;33163;0.000;0.000;2023-04-21T13:43:15;20.40;57.90
47414;DHT22;33163;0.000;0.000;2023-04-21T13:45:42;20.40;57.90
47414;DHT22;33163;0.000;0.000;2023-04-21T13:48:09;20.40;57.90
47414;DHT22;33163;0.000;0.000;2023-04-21T13:50:37;20.40;57.90
47414;DHT22;33163;0.000;0.000;2023-04-21T13:53:04;20.40;57.80
47414;DHT22;33163;0.000;0.000;2023-04-21T13:55:31;20.30;57.80
47414;DHT22;33163;0.000;0.000;2023-04-21T13:57:58;20.30;57.80
47414;DHT22;33163;0.000;0.000;2023-04-21T14:00:25;20.30;57.80
47414;DHT22;33163;0.000;0.000;2023-04-21T14:02:52;20.30;57.80
47414;DHT22;33163;0.000;0.000;2023-04-21T14:05:18;20.30;57.80
47414;DHT22;33163;0.000;0.000;2023-04-21T14:07:46;20.30;57.80
47414;DHT22;33163;0.000;0.000;2023-04-21T14:10:13;20.30;57.80
47414;DHT22;33163;0.000;0.000;2023-04-21T14:12:40;20.20;57.70
47414;DHT22;33163;0.000;0.000;2023-04-21T14:15:10;20.20;57.70
47414;DHT22;33163;0.000;0.000;2023-04-21T14:17:37;20.20;57.60
47414;DHT22;33163;0.000;0.000;2023-04-21T14:20:05;20.20;57.70
47414;DHT22;33163;0.000;0.000;2023-04-21T14:22:33;20.20;58.00
47414;DHT22;33163;0.000;0.000;2023-04-21T14:25:02;20.30;58.20
47414;DHT22;33163;0.000;0.000;2023-04-21T14:27:28;20.20;58.50
47414;DHT22;33163;0.000;0.000;2023-04-21T14:29:55;20.20;58.50
47414;DHT22;33163;0.000;0.000;2023-04-21T14:32:24;20.20;58.60
47414;DHT22;33163;0.000;0.000;2023-04-21T14:34:50;20.20;58.60
47414;DHT22;33163;0.000;0.000;2023-04-21T14:37:18;20.20;58.50
47414;DHT22;33163;0.000;0.000;2023-04-21T14:39:45;20.20;58.40
47414;DHT22;33163;0.000;0.000;2023-04-21T14:42:13;20.10;58.30
47414;DHT22;33163;0.000;0.000;2023-04-21T14:44:41;20.10;58.30
47414;DHT22;33163;0.000;0.000;2023-04-21T14:47:08;20.10;58.20
47414;DHT22;33163;0.000;0.000;2023-04-21T14:49:35;20.20;58.10
47414;DHT22;33163;0.000;0.000;2023-04-21T14:52:03;20.10;58.00
47414;DHT22;33163;0.000;0.000;2023-04-21T14:54:30;20.10;57.90
47414;DHT22;33163;0.000;0.000;2023-04-21T14:56:57;20.10;57.90
47414;DHT22;33163;0.000;0.000;2023-04-21T14:59:26;20.10;57.80
47414;DHT22;33163;0.000;0.000;2023-04-21T15:01:53;20.10;57.80
47414;DHT22;33163;0.000;0.000;2023-04-21T15:04:20;20.10;57.80
47414;DHT22;33163;0.000;0.000;2023-04-21T15:06:47;20.10;57.80
47414;DHT22;33163;0.000;0.000;2023-04-21T15:09:13;20.10;57.80
47414;DHT22;33163;0.000;0.000;2023-04-21T15:11:40;20.10;57.80
47414;DHT22;33163;0.000;0.000;2023-04-21T15:14:07;20.10;57.80
47414;DHT22;33163;0.000;0.000;2023-04-21T15:16:36;20.10;57.70
47414;DHT22;33163;0.000;0.000;2023-04-21T15:19:03;20.10;57.60
47414;DHT22;33163;0.000;0.000;2023-04-21T15:21:29;20.10;57.60
47414;DHT22;33163;0.000;0.000;2023-04-21T15:23:57;20.10;57.60
47414;DHT22;33163;0.000;0.000;2023-04-21T15:26:24;20.10;57.60
47414;DHT22;33163;0.000;0.000;2023-04-21T15:28:51;20.10;57.60
47414;DHT22;33163;0.000;0.000;2023-04-21T15:31:18;20.10;57.60
47414;DHT22;33163;0.000;0.000;2023-04-21T15:33:46;20.10;57.60
47414;DHT22;33163;0.000;0.000;2023-04-21T15:36:13;20.00;57.60
47414;DHT22;33163;0.000;0.000;2023-04-21T15:38:39;20.10;57.60
47414;DHT22;33163;0.000;0.000;2023-04-21T15:41:07;20.10;57.60
47414;DHT22;33163;0.000;0.000;2023-04-21T15:43:34;20.10;57.60
47414;DHT22;33163;0.000;0.000;2023-04-21T15:46:01;20.00;57.60
47414;DHT22;33163;0.000;0.000;2023-04-21T15:48:34;20.00;57.60